Time;durP1;ratioP1;P1;durP2;ratioP2;P2;SDS_P1;SDS_P2;PMS_P1;PMS_P2;Temp;Humidity;BMP_temperature;BMP_pressure;BME280_temperature;BME280_humidity;BME280_pressure;Samples;Min_cycle;Max_cycle;Signal;HPM_P1;HPM_P2
2021/10/29 00:01:34;;;;;;;22.55;10.00;;;;;;;2.57;100.00;95084.88;4993449;28;20444;-55
2021/10/29 00:04:03;;;;;;;21.52;9.70;;;;;;;2.62;100.00;95087.69;4994158;28;20042;-57
2021/10/29 00:06:29;;;;;;;23.98;9.23;;;;;;;2.64;100.00;95077.72;4987221;28;20034;-53
2021/10/29 00:08:55;;;;;;;40.47;10.32;;;;;;;2.65;100.00;95074.03;4975357;28;20028;-53
2021/10/29 00:11:20;;;;;;;22.58;9.88;;;;;;;2.66;100.00;95072.19;5005275;28;20046;-55
2021/10/29 00:13:46;;;;;;;17.50;9.98;;;;;;;2.66;100.00;95078.28;4994635;28;20021;-54
2021/10/29 00:16:14;;;;;;;36.03;11.35;;;;;;;2.65;100.00;95073.22;4993454;28;20385;-54
2021/10/29 00:18:40;;;;;;;26.80;10.40;;;;;;;2.65;100.00;95067.94;4991739;28;20037;-57
2021/10/29 00:21:08;;;;;;;15.60;9.90;;;;;;;2.62;100.00;95066.53;4991749;28;20401;-55
2021/10/29 00:23:36;;;;;;;12.48;8.65;;;;;;;2.62;100.00;95071.84;4993461;28;20790;-54
2021/10/29 00:26:02;;;;;;;16.63;10.05;;;;;;;2.61;100.00;95073.66;5002621;28;20022;-54
2021/10/29 00:28:27;;;;;;;22.90;10.45;;;;;;;2.60;100.00;95072.06;4971877;28;20049;-58
2021/10/29 00:30:53;;;;;;;18.65;9.48;;;;;;;2.58;100.00;95060.06;4979132;28;20035;-58
2021/10/29 00:33:18;;;;;;;29.08;9.98;;;;;;;2.60;100.00;95063.28;4970174;28;20023;-58
2021/10/29 00:35:47;;;;;;;12.88;9.85;;;;;;;2.64;100.00;95053.09;4997361;28;20493;-57
2021/10/29 00:38:18;;;;;;;19.08;9.95;;;;;;;2.64;100.00;95061.84;4978366;28;20029;-56
2021/10/29 00:40:47;;;;;;;12.57;8.85;;;;;;;2.66;100.00;95053.69;4998037;28;20497;-56
2021/10/29 00:43:15;;;;;;;16.92;8.82;;;;;;;2.67;100.00;95063.25;4998110;28;20812;-57
2021/10/29 00:45:41;;;;;;;37.45;9.48;;;;;;;2.65;100.00;95065.28;4988092;28;20044;-57
2021/10/29 00:48:12;;;;;;;16.15;9.25;;;;;;;2.63;100.00;95070.81;4991638;28;20026;-55
2021/10/29 00:50:43;;;;;;;18.63;9.77;;;;;;;2.64;100.00;95072.41;5005306;28;20038;-53
2021/10/29 00:53:10;;;;;;;23.50;9.23;;;;;;;2.67;100.00;95063.25;4975244;28;20022;-54
2021/10/29 00:55:39;;;;;;;16.88;8.95;;;;;;;2.71;100.00;95067.88;4974316;28;20367;-53
2021/10/29 00:58:04;;;;;;;30.88;8.85;;;;;;;2.74;100.00;95066.66;4995617;28;20638;-54
2021/10/29 01:00:30;;;;;;;21.55;8.68;;;;;;;2.79;100.00;95056.22;4991162;28;20152;-55
2021/10/29 01:02:55;;;;;;;33.40;8.90;;;;;;;2.82;100.00;95053.13;4997162;28;20066;-56
2021/10/29 01:05:20;;;;;;;32.03;8.70;;;;;;;2.85;100.00;95056.16;4979499;28;20030;-53
2021/10/29 01:07:46;;;;;;;32.00;8.93;;;;;;;2.89;100.00;95057.34;4971004;28;20469;-56
2021/10/29 01:10:11;;;;;;;24.75;8.55;;;;;;;2.94;100.00;95053.25;4989070;28;20026;-54
2021/10/29 01:12:43;;;;;;;26.05;8.75;;;;;;;3.03;100.00;95052.72;4999889;28;20707;-53
2021/10/29 01:15:09;;;;;;;17.63;8.55;;;;;;;3.07;100.00;95053.94;4989739;28;20037;-53
2021/10/29 01:17:35;;;;;;;27.48;8.70;;;;;;;3.12;100.00;95058.56;4972074;28;20030;-54
2021/10/29 01:20:10;;;;;;;21.52;9.68;;;;;;;3.16;100.00;95057.91;4989006;28;21328;-57
2021/10/29 01:22:35;;;;;;;17.65;9.48;;;;;;;3.22;100.00;95050.91;4988225;28;20393;-58
2021/10/29 01:25:10;;;;;;;32.78;10.00;;;;;;;3.31;100.00;95046.94;4989836;28;20025;-56
2021/10/29 01:27:41;;;;;;;18.40;9.75;;;;;;;3.39;100.00;95040.56;4996568;28;20068;-59
2021/10/29 01:30:08;;;;;;;42.13;10.82;;;;;;;3.45;100.00;95037.81;4998210;28;20037;-59
2021/10/29 01:32:36;;;;;;;25.88;9.32;;;;;;;3.51;100.00;95038.00;5003756;28;20036;-58
2021/10/29 01:35:14;;;;;;;21.38;10.43;;;;;;;3.56;100.00;95038.91;4990835;28;20113;-58
2021/10/29 01:37:42;;;;;;;24.33;9.65;;;;;;;3.62;100.00;95034.59;4992297;28;20025;-57
2021/10/29 01:40:13;;;;;;;20.65;10.30;;;;;;;3.65;100.00;95023.53;4988852;28;20277;-59
2021/10/29 01:42:39;;;;;;;26.00;9.98;;;;;;;3.68;100.00;95023.09;4997888;28;20034;-59
2021/10/29 01:45:06;;;;;;;22.83;9.57;;;;;;;3.71;100.00;95023.47;4989807;28;20030;-59
2021/10/29 01:47:34;;;;;;;41.35;10.65;;;;;;;3.74;100.00;95030.16;4992225;28;20066;-59
2021/10/29 01:50:00;;;;;;;32.33;10.52;;;;;;;3.78;100.00;95021.53;4990692;28;20030;-59
2021/10/29 01:52:28;;;;;;;27.05;10.38;;;;;;;3.84;100.00;95013.72;4992931;28;20025;-59
2021/10/29 01:54:56;;;;;;;24.92;10.02;;;;;;;3.87;100.00;95016.72;4994434;28;20124;-59
2021/10/29 01:57:28;;;;;;;43.42;10.70;;;;;;;3.88;100.00;95014.88;4992063;28;20112;-59
2021/10/29 02:00:05;;;;;;;21.83;9.95;;;;;;;3.91;100.00;95009.97;4999696;28;20030;-58
2021/10/29 02:02:30;;;;;;;43.10;10.57;;;;;;;3.93;100.00;95007.09;4989567;28;20026;-59
2021/10/29 02:04:56;;;;;;;18.92;9.70;;;;;;;3.95;100.00;95011.13;4980945;28;20030;-59
2021/10/29 02:07:21;;;;;;;17.67;9.68;;;;;;;3.98;100.00;95004.56;4993001;28;20080;-59
2021/10/29 02:09:46;;;;;;;62.42;12.00;;;;;;;4.01;100.00;95009.41;4976981;28;20084;-57
2021/10/29 02:12:12;;;;;;;45.53;11.18;;;;;;;4.07;100.00;95019.91;4991812;28;20114;-59
2021/10/29 02:14:40;;;;;;;54.78;10.88;;;;;;;4.13;100.00;95020.88;4994550;28;20034;-57
2021/10/29 02:17:05;;;;;;;46.42;11.25;;;;;;;4.18;100.00;95014.88;4994384;28;20040;-56
2021/10/29 02:19:31;;;;;;;29.10;11.80;;;;;;;4.23;100.00;94999.09;4976409;28;20030;-58
2021/10/29 02:21:56;;;;;;;30.27;11.40;;;;;;;4.26;100.00;94999.47;4988112;28;20045;-53
2021/10/29 02:24:25;;;;;;;16.33;10.38;;;;;;;4.28;100.00;94991.28;4973418;28;20499;-55
2021/10/29 02:26:50;;;;;;;30.30;10.60;;;;;;;4.27;100.00;94995.78;4989991;28;20026;-58
2021/10/29 02:29:15;;;;;;;41.95;11.35;;;;;;;4.30;100.00;94997.16;5000527;28;20443;-58
2021/10/29 02:31:41;;;;;;;25.20;10.45;;;;;;;4.31;100.00;94991.63;5001767;28;20549;-55
2021/10/29 02:34:06;;;;;;;27.38;10.90;;;;;;;4.32;100.00;94990.56;4986171;28;20030;-57
2021/10/29 02:36:34;;;;;;;43.15;11.68;;;;;;;4.34;100.00;94975.28;4972641;28;20037;-59
2021/10/29 02:38:59;;;;;;;48.05;11.20;;;;;;;4.33;100.00;94972.81;5000924;28;20089;-58
2021/10/29 02:41:36;;;;;;;25.00;11.32;;;;;;;4.35;100.00;94979.53;4998305;28;20508;-59
2021/10/29 02:44:02;;;;;;;57.47;11.15;;;;;;;4.36;100.00;94983.00;4975754;28;20031;-61
2021/10/29 02:46:28;;;;;;;17.92;11.60;;;;;;;4.39;100.00;94979.06;5011823;28;20037;-61
2021/10/29 02:48:53;;;;;;;32.25;11.23;;;;;;;4.41;100.00;94979.66;4982739;28;20033;-61
2021/10/29 02:51:25;;;;;;;33.25;11.18;;;;;;;4.44;100.00;94969.38;5002636;28;20113;-61
2021/10/29 02:53:53;;;;;;;56.10;12.80;;;;;;;4.46;100.00;94967.34;4997560;28;20034;-61
2021/10/29 02:56:19;;;;;;;43.47;11.63;;;;;;;4.45;100.00;94963.06;4993968;28;20602;-61
2021/10/29 02:58:44;;;;;;;42.28;12.25;;;;;;;4.46;100.00;94964.69;4996629;28;20091;-61
2021/10/29 03:01:09;;;;;;;23.58;10.63;;;;;;;4.48;100.00;94964.44;5008687;28;20060;-59
2021/10/29 03:03:35;;;;;;;46.60;11.27;;;;;;;4.49;100.00;94963.41;5009252;28;20030;-61
2021/10/29 03:06:00;;;;;;;74.38;11.30;;;;;;;4.49;100.00;94952.78;5007332;28;20116;-61
2021/10/29 03:08:32;;;;;;;19.80;10.73;;;;;;;4.52;100.00;94954.97;5001548;28;20021;-58
2021/10/29 03:10:57;;;;;;;29.30;10.25;;;;;;;4.53;100.00;94962.69;4997521;28;20512;-56
2021/10/29 03:13:23;;;;;;;53.80;11.80;;;;;;;4.54;100.00;94969.63;4980643;28;20026;-61
2021/10/29 03:15:49;;;;;;;33.15;11.05;;;;;;;4.55;100.00;94962.47;4989903;28;20018;-61
2021/10/29 03:18:16;;;;;;;32.45;10.35;;;;;;;4.55;100.00;94963.28;4997187;28;20022;-61
2021/10/29 03:20:41;;;;;;;35.95;10.73;;;;;;;4.53;100.00;94965.34;4984528;28;20034;-61
2021/10/29 03:23:12;;;;;;;41.33;10.98;;;;;;;4.52;100.00;94955.78;5000415;28;20120;-61
2021/10/29 03:25:38;;;;;;;44.47;11.75;;;;;;;4.53;100.00;94960.06;4984994;28;20065;-59
2021/10/29 03:28:08;;;;;;;36.38;11.35;;;;;;;4.53;100.00;94956.59;4985369;28;20022;-61
2021/10/29 03:30:34;;;;;;;39.05;11.25;;;;;;;4.53;100.00;94956.59;5002909;28;20088;-61
2021/10/29 03:33:02;;;;;;;26.90;10.50;;;;;;;4.51;100.00;94956.03;5002497;28;20030;-62
2021/10/29 03:35:31;;;;;;;51.33;11.80;;;;;;;4.53;100.00;94959.25;4986005;28;20408;-61
2021/10/29 03:38:16;;;;;;;33.40;11.05;;;;;;;4.52;100.00;94966.41;5000479;28;20028;-61
2021/10/29 03:43:34;;;;;;;15.30;9.57;;;;;;;4.47;100.00;94954.88;4997149;28;20031;-61
2021/10/29 03:46:03;;;;;;;33.80;10.48;;;;;;;4.43;100.00;94959.81;4991601;28;20050;-61
2021/10/29 03:48:57;;;;;;;56.03;10.68;;;;;;;4.40;100.00;94954.16;5000246;28;20028;-61
2021/10/29 03:54:17;;;;;;;23.70;10.02;;;;;;;4.33;100.00;94954.25;4999669;28;20033;-61
2021/10/29 03:56:46;;;;;;;30.45;9.80;;;;;;;4.32;100.00;94955.31;5010082;28;20038;-61
